Terminal Aerodrome Forecast
Issued by NWS

Home | Current Version | Previous Version | Text Only | Print | Product List | Glossary On
Versions: 1 2 3 4 5 6 7 8 9 10 11 12 13 14
000
FTUS45 KREV 021730
TAFMMH
TAF
KMMH 021730Z 0218/0318 10008KT P6SM SCT080 BKN140
     FM022100 16011KT P6SM VCTS BKN060CB BKN120
     FM030000 27011G19KT P6SM SCT070 BKN140
     FM030600 VRB03KT P6SM SCT140=

USA.gov is the U.S. government's official web portal to all federal, state and local government web resources and services.